Terminal Aerodrome Forecast
Issued by NWS Tampa Bay Area, FL

Home | Current Version | Previous Version | Text Only | Print | Product List | Glossary Off
Versions: 1 2 3 4 5 6 7 8 9 10 11 12 13 14 15 16 17 18 19 20 21 22 23 24 25 26 27 28 29 30

000
FTUS42 KTBW 040529
TAFTPA
TAF
KTPA 040529Z 0406/0506 VRB03KT P6SM FEW045 BKN250
     FM041400 16005KT P6SM FEW025 SCT250
     FM041800 24005KT P6SM VCTS SCT035CB BKN250
     FM042100 29007KT P6SM VCTS SCT045CB BKN250
     FM050000 VRB05KT P6SM SCT045 BKN250
     FM050300 09002KT P6SM SCT045 BKN250=

USA.gov is the U.S. government's official web portal to all federal, state and local government web resources and services.